Time;durP1;ratioP1;P1;durP2;ratioP2;P2;SDS_P1;SDS_P2;PMS_P1;PMS_P2;Temp;Humidity;BMP_temperature;BMP_pressure;BME280_temperature;BME280_humidity;BME280_pressure;Samples;Min_cycle;Max_cycle;Signal;HPM_P1;HPM_P2
2023/03/04 00:00:44;;;;;;;;;52.00;43.00;;;;;-147.17;100.00;-15917.19;5072533;27;53310;-49
2023/03/04 00:03:10;;;;;;;;;50.50;43.00;;;;;-147.17;100.00;-15917.19;5071790;27;51215;-49
2023/03/04 00:05:36;;;;;;;;;50.25;41.50;;;;;-147.17;100.00;-15917.19;5072148;27;51760;-48
2023/03/04 00:08:02;;;;;;;;;57.75;47.00;;;;;-147.17;100.00;-15917.19;5072035;27;53571;-51
2023/03/04 00:10:27;;;;;;;;;51.75;44.00;;;;;-147.17;100.00;-15917.19;5071552;27;51972;-49
2023/03/04 00:12:52;;;;;;;;;55.75;47.00;;;;;-147.17;100.00;-15917.19;5071612;27;51079;-47
2023/03/04 00:15:18;;;;;;;;;53.25;44.75;;;;;-147.17;100.00;-15917.19;5070162;27;51077;-50
2023/03/04 00:17:44;;;;;;;;;50.25;42.25;;;;;-147.17;100.00;-15917.19;5072514;27;51103;-50
2023/03/04 00:20:10;;;;;;;;;47.50;40.75;;;;;-147.17;100.00;-15917.19;5070286;27;51916;-51
2023/03/04 00:22:36;;;;;;;;;60.00;50.75;;;;;-147.17;100.00;-15917.19;5070087;27;51148;-49
2023/03/04 00:25:01;;;;;;;;;53.00;42.75;;;;;-147.17;100.00;-15917.19;5071864;27;51191;-49
2023/03/04 00:27:27;;;;;;;;;52.75;44.50;;;;;-147.17;100.00;-15917.19;5071102;27;51457;-49
2023/03/04 00:29:52;;;;;;;;;47.25;39.50;;;;;-147.17;100.00;-15917.19;5069941;27;51939;-49
2023/03/04 00:32:17;;;;;;;;;57.00;46.00;;;;;-147.17;100.00;-15917.19;5071789;27;51134;-51
2023/03/04 00:34:43;;;;;;;;;48.50;41.00;;;;;-147.17;100.00;-15917.19;5069558;27;51726;-50
2023/03/04 00:37:08;;;;;;;;;55.75;44.00;;;;;-147.17;100.00;-15917.19;5072477;27;51057;-49
2023/03/04 00:39:33;;;;;;;;;48.75;42.25;;;;;-147.17;100.00;-15917.19;5071243;27;51162;-49
2023/03/04 00:41:59;;;;;;;;;61.75;46.50;;;;;-147.17;100.00;-15917.19;5071308;27;51272;-49
2023/03/04 00:44:24;;;;;;;;;49.00;40.75;;;;;-147.17;100.00;-15917.19;5071637;27;51229;-51
2023/03/04 00:46:49;;;;;;;;;57.50;46.25;;;;;-147.17;100.00;-15917.19;5072943;27;51500;-50
2023/03/04 00:49:15;;;;;;;;;57.25;46.50;;;;;-147.17;100.00;-15917.19;5071194;27;52181;-49
2023/03/04 00:51:40;;;;;;;;;49.00;42.75;;;;;-147.17;100.00;-15917.19;5071907;27;51181;-50
2023/03/04 00:54:05;;;;;;;;;48.00;42.25;;;;;-147.17;100.00;-15917.19;5069953;27;51267;-52
2023/03/04 00:56:30;;;;;;;;;51.25;45.25;;;;;-147.17;100.00;-15917.19;5070569;27;51305;-50
2023/03/04 00:58:56;;;;;;;;;51.00;44.00;;;;;-147.17;100.00;-15917.19;5073614;27;51149;-49
2023/03/04 01:01:21;;;;;;;;;51.75;43.75;;;;;-147.17;100.00;-15917.19;5071095;27;51224;-50
2023/03/04 01:03:46;;;;;;;;;50.25;43.50;;;;;-147.17;100.00;-15917.19;5070658;27;51635;-51
2023/03/04 01:06:12;;;;;;;;;58.25;46.75;;;;;-147.17;100.00;-15917.19;5071651;27;51253;-49
2023/03/04 01:08:38;;;;;;;;;61.50;50.25;;;;;-147.17;100.00;-15917.19;5070628;27;54757;-49
2023/03/04 01:11:04;;;;;;;;;41.25;34.00;;;;;-147.17;100.00;-15917.19;5072006;27;51509;-50
2023/03/04 01:13:30;;;;;;;;;55.25;46.25;;;;;-147.17;100.00;-15917.19;5071277;27;51400;-50
2023/03/04 01:15:56;;;;;;;;;58.75;48.00;;;;;-147.17;100.00;-15917.19;5070683;27;51126;-51
2023/03/04 01:18:21;;;;;;;;;60.00;49.50;;;;;-147.17;100.00;-15917.19;5071874;27;52787;-50
2023/03/04 01:20:47;;;;;;;;;60.50;47.50;;;;;-147.17;100.00;-15917.19;5071027;27;51207;-50
2023/03/04 01:23:12;;;;;;;;;53.75;46.25;;;;;-147.17;100.00;-15917.19;5069755;27;51202;-50
2023/03/04 01:25:38;;;;;;;;;59.50;47.25;;;;;-147.17;100.00;-15917.19;5071945;27;51486;-47
2023/03/04 01:28:03;;;;;;;;;59.25;47.75;;;;;-147.17;100.00;-15917.19;5070860;27;51639;-50
2023/03/04 01:30:28;;;;;;;;;58.50;47.00;;;;;-147.17;100.00;-15917.19;5068312;27;51210;-51
2023/03/04 01:32:54;;;;;;;;;55.25;45.75;;;;;-147.17;100.00;-15917.19;5070483;27;51830;-49
2023/03/04 01:35:19;;;;;;;;;61.50;49.75;;;;;-147.17;100.00;-15917.19;5068685;27;52640;-49
2023/03/04 01:37:45;;;;;;;;;61.00;47.00;;;;;-147.17;100.00;-15917.19;5067163;27;52028;-50
2023/03/04 01:40:11;;;;;;;;;62.75;51.00;;;;;-147.17;100.00;-15917.19;5070546;27;51206;-50
2023/03/04 01:42:37;;;;;;;;;56.50;45.75;;;;;-147.17;100.00;-15917.19;5070746;27;51145;-51
2023/03/04 01:45:04;;;;;;;;;55.50;47.00;;;;;-147.17;100.00;-15917.19;5070613;27;53493;-50
2023/03/04 01:47:31;;;;;;;;;65.75;52.00;;;;;-147.17;100.00;-15917.19;5069360;27;51899;-48
2023/03/04 01:50:00;;;;;;;;;54.25;44.50;;;;;-147.17;100.00;-15917.19;5077082;27;51300;-49
2023/03/04 01:52:26;;;;;;;;;63.75;49.25;;;;;-147.17;100.00;-15917.19;5069674;27;51239;-49
2023/03/04 01:54:52;;;;;;;;;56.25;44.25;;;;;-147.17;100.00;-15917.19;5070411;27;51140;-48
2023/03/04 01:57:20;;;;;;;;;57.75;49.25;;;;;-147.17;100.00;-15917.19;5070145;27;53510;-48
2023/03/04 01:59:46;;;;;;;;;54.00;46.25;;;;;-147.17;100.00;-15917.19;5070720;27;51394;-48
2023/03/04 02:02:13;;;;;;;;;54.50;45.50;;;;;-147.17;100.00;-15917.19;5069171;27;51259;-49
2023/03/04 02:04:41;;;;;;;;;57.25;46.75;;;;;-147.17;100.00;-15917.19;5069276;27;51108;-50
2023/03/04 02:07:07;;;;;;;;;55.75;47.00;;;;;-147.17;100.00;-15917.19;5069996;27;51970;-50
2023/03/04 02:09:34;;;;;;;;;64.25;52.25;;;;;-147.17;100.00;-15917.19;5071199;27;51265;-50
2023/03/04 02:12:00;;;;;;;;;58.25;49.00;;;;;-147.17;100.00;-15917.19;5068915;27;51622;-50
2023/03/04 02:14:26;;;;;;;;;58.25;46.75;;;;;-147.17;100.00;-15917.19;5075560;27;51269;-50
2023/03/04 02:16:51;;;;;;;;;57.50;45.75;;;;;-147.17;100.00;-15917.19;5071405;27;51620;-50
2023/03/04 02:20:04;;;;;;;;;45.25;39.50;;;;;-147.17;100.00;-15917.19;5069898;27;51281;-49
2023/03/04 02:22:31;;;;;;;;;60.50;48.25;;;;;-147.17;100.00;-15917.19;5022681;28;51298;-50
2023/03/04 02:25:05;;;;;;;;;59.75;47.50;;;;;-147.17;100.00;-15917.19;5063194;27;51369;-50
2023/03/04 02:27:30;;;;;;;;;62.75;49.75;;;;;-147.17;100.00;-15917.19;5071086;27;52018;-51
2023/03/04 02:29:56;;;;;;;;;58.00;46.25;;;;;-147.17;100.00;-15917.19;5069925;27;51275;-50
2023/03/04 02:32:21;;;;;;;;;58.75;45.50;;;;;-147.17;100.00;-15917.19;5070640;27;51133;-53
2023/03/04 02:34:49;;;;;;;;;65.25;49.75;;;;;-147.17;100.00;-15917.19;5068588;27;51232;-48
2023/03/04 02:37:17;;;;;;;;;66.25;51.50;;;;;-147.17;100.00;-15917.19;5069032;27;52426;-51
2023/03/04 02:39:44;;;;;;;;;56.50;47.75;;;;;-147.17;100.00;-15917.19;5069474;27;51148;-48
2023/03/04 02:42:11;;;;;;;;;56.50;45.75;;;;;-147.17;100.00;-15917.19;5070026;27;51361;-48
2023/03/04 02:44:38;;;;;;;;;60.00;49.00;;;;;-147.17;100.00;-15917.19;5069344;27;51269;-49
2023/03/04 02:47:06;;;;;;;;;59.50;43.25;;;;;-147.17;100.00;-15917.19;5069365;27;52012;-49
2023/03/04 02:49:34;;;;;;;;;60.50;48.25;;;;;-147.17;100.00;-15917.19;5069805;27;51147;-50
2023/03/04 02:52:04;;;;;;;;;60.25;46.50;;;;;-147.17;100.00;-15917.19;5072198;27;51096;-50
2023/03/04 02:54:29;;;;;;;;;56.75;43.75;;;;;-147.17;100.00;-15917.19;5073914;27;51244;-51
2023/03/04 02:57:03;;;;;;;;;52.00;45.00;;;;;-147.17;100.00;-15917.19;5073451;27;51568;-49
2023/03/04 02:59:29;;;;;;;;;57.00;46.00;;;;;-147.17;100.00;-15917.19;5073424;27;51231;-49
2023/03/04 03:01:54;;;;;;;;;57.25;45.75;;;;;-147.17;100.00;-15917.19;5073575;27;53641;-48
2023/03/04 03:04:21;;;;;;;;;45.00;39.75;;;;;-147.17;100.00;-15917.19;5073115;27;51279;-47
2023/03/04 03:06:47;;;;;;;;;51.75;43.50;;;;;-147.17;100.00;-15917.19;5072689;27;52007;-49
2023/03/04 03:09:12;;;;;;;;;62.50;46.00;;;;;-147.17;100.00;-15917.19;5084969;27;51212;-50
2023/03/04 03:11:38;;;;;;;;;62.75;51.00;;;;;-147.17;100.00;-15917.19;5073618;27;51237;-50
2023/03/04 03:14:04;;;;;;;;;59.25;49.00;;;;;-147.17;100.00;-15917.19;5072539;27;51393;-51
2023/03/04 03:16:29;;;;;;;;;55.00;46.25;;;;;-147.17;100.00;-15917.19;5071792;27;51817;-50
2023/03/04 03:18:55;;;;;;;;;50.25;43.25;;;;;-147.17;100.00;-15917.19;5061234;27;51087;-48
2023/03/04 03:21:20;;;;;;;;;59.25;47.50;;;;;-147.17;100.00;-15917.19;5072395;27;51162;-50
2023/03/04 03:23:46;;;;;;;;;60.75;45.50;;;;;-147.17;100.00;-15917.19;5072742;27;51267;-49
2023/03/04 03:26:11;;;;;;;;;62.00;49.75;;;;;-147.17;100.00;-15917.19;5071645;27;51785;-50
2023/03/04 03:28:36;;;;;;;;;63.50;50.75;;;;;-147.17;100.00;-15917.19;5072298;27;51361;-47
2023/03/04 03:31:02;;;;;;;;;56.75;48.25;;;;;-147.17;100.00;-15917.19;5071673;27;53440;-51
2023/03/04 03:33:27;;;;;;;;;61.25;51.50;;;;;-147.17;100.00;-15917.19;5072684;27;51302;-48
2023/03/04 03:35:53;;;;;;;;;55.25;47.00;;;;;-147.17;100.00;-15917.19;5070846;27;51566;-48
2023/03/04 03:38:18;;;;;;;;;56.50;48.25;;;;;-147.17;100.00;-15917.19;5071839;27;53531;-51
2023/03/04 03:40:44;;;;;;;;;66.25;49.00;;;;;-147.17;100.00;-15917.19;5071822;27;51553;-49
2023/03/04 03:43:10;;;;;;;;;63.75;50.25;;;;;-147.17;100.00;-15917.19;5071076;27;51184;-49
2023/03/04 03:45:35;;;;;;;;;59.75;49.50;;;;;-147.17;100.00;-15917.19;5071286;27;52058;-48
2023/03/04 03:48:01;;;;;;;;;60.75;47.75;;;;;-147.17;100.00;-15917.19;5070523;27;51273;-48
2023/03/04 03:50:28;;;;;;;;;55.50;44.00;;;;;-147.17;100.00;-15917.19;5071798;27;51302;-50
2023/03/04 03:52:53;;;;;;;;;57.00;47.75;;;;;-147.17;100.00;-15917.19;5073574;27;51117;-48
2023/03/04 03:55:19;;;;;;;;;52.25;43.50;;;;;-147.17;100.00;-15917.19;5071027;27;52071;-49
2023/03/04 03:57:44;;;;;;;;;62.75;50.75;;;;;-147.17;100.00;-15917.19;5071519;27;51317;-49
2023/03/04 04:00:10;;;;;;;;;60.25;47.00;;;;;-147.17;100.00;-15917.19;5072374;27;51320;-48
2023/03/04 04:02:35;;;;;;;;;70.00;49.75;;;;;-147.17;100.00;-15917.19;5071617;27;51256;-49
2023/03/04 04:05:01;;;;;;;;;61.75;48.50;;;;;-147.17;100.00;-15917.19;5070473;27;51205;-50
2023/03/04 04:07:26;;;;;;;;;56.75;45.00;;;;;-147.17;100.00;-15917.19;5071143;27;51232;-51
2023/03/04 04:09:51;;;;;;;;;57.00;47.75;;;;;-147.17;100.00;-15917.19;5071264;27;51250;-51
2023/03/04 04:12:18;;;;;;;;;57.50;48.50;;;;;-147.17;100.00;-15917.19;5072022;27;51802;-50
2023/03/04 04:14:44;;;;;;;;;59.50;46.75;;;;;-147.17;100.00;-15917.19;5071517;27;52870;-50
2023/03/04 04:17:10;;;;;;;;;56.25;47.25;;;;;-147.17;100.00;-15917.19;5071402;27;51226;-49
2023/03/04 04:19:35;;;;;;;;;58.75;45.50;;;;;-147.17;100.00;-15917.19;5072858;27;53334;-48
2023/03/04 04:22:01;;;;;;;;;49.25;44.00;;;;;-147.17;100.00;-15917.19;5070961;27;51281;-50
2023/03/04 04:24:27;;;;;;;;;54.00;45.50;;;;;-147.17;100.00;-15917.19;5070178;27;51846;-49
2023/03/04 04:26:52;;;;;;;;;50.00;38.00;;;;;-147.17;100.00;-15917.19;5070051;27;51212;-48
2023/03/04 04:29:18;;;;;;;;;52.25;43.50;;;;;-147.17;100.00;-15917.19;5070987;27;51383;-49
2023/03/04 04:31:43;;;;;;;;;51.50;41.50;;;;;-147.17;100.00;-15917.19;5072227;27;51469;-49
2023/03/04 04:34:08;;;;;;;;;53.25;45.50;;;;;-147.17;100.00;-15917.19;5071751;27;57852;-50
2023/03/04 04:36:34;;;;;;;;;54.25;45.00;;;;;-147.17;100.00;-15917.19;5071597;27;51194;-50
2023/03/04 04:38:59;;;;;;;;;50.50;42.75;;;;;-147.17;100.00;-15917.19;5070988;27;51434;-51
2023/03/04 04:41:28;;;;;;;;;55.00;45.25;;;;;-147.17;100.00;-15917.19;5070346;27;51441;-51
2023/03/04 04:43:54;;;;;;;;;53.50;45.00;;;;;-147.17;100.00;-15917.19;5070436;27;51274;-49
2023/03/04 04:46:19;;;;;;;;;51.75;42.50;;;;;-147.17;100.00;-15917.19;5071656;27;51402;-49
2023/03/04 04:48:45;;;;;;;;;59.00;44.75;;;;;-147.17;100.00;-15917.19;5071142;27;51247;-50
2023/03/04 04:51:11;;;;;;;;;47.25;42.50;;;;;-147.17;100.00;-15917.19;5072097;27;53379;-47
2023/03/04 04:53:36;;;;;;;;;44.75;35.00;;;;;-147.17;100.00;-15917.19;5070578;27;51086;-47
2023/03/04 04:56:25;;;;;;;;;57.50;45.00;;;;;-147.17;100.00;-15917.19;5070172;27;53212;-50
2023/03/04 04:58:51;;;;;;;;;50.25;41.50;;;;;-147.17;100.00;-15917.19;5072953;27;51236;-50
2023/03/04 05:01:16;;;;;;;;;46.75;42.75;;;;;-147.17;100.00;-15917.19;5071098;27;51616;-51
2023/03/04 05:03:42;;;;;;;;;38.75;35.75;;;;;-147.17;100.00;-15917.19;5072131;27;51757;-51
2023/03/04 05:06:09;;;;;;;;;48.75;43.00;;;;;-147.17;100.00;-15917.19;5103049;27;51259;-51
2023/03/04 05:08:34;;;;;;;;;38.00;33.00;;;;;-147.17;100.00;-15917.19;5070810;27;51237;-50
2023/03/04 05:11:00;;;;;;;;;48.25;42.75;;;;;-147.17;100.00;-15917.19;5071864;27;51424;-49
2023/03/04 05:13:26;;;;;;;;;51.50;45.25;;;;;-147.17;100.00;-15917.19;5069590;27;51698;-50
2023/03/04 05:15:53;;;;;;;;;43.75;39.25;;;;;-147.17;100.00;-15917.19;5069310;27;51155;-48
2023/03/04 05:18:20;;;;;;;;;41.75;39.00;;;;;-147.17;100.00;-15917.19;5071223;27;51211;-49
2023/03/04 05:20:50;;;;;;;;;47.25;38.00;;;;;-147.17;100.00;-15917.19;5071772;27;51400;-50
2023/03/04 05:23:16;;;;;;;;;45.00;41.00;;;;;-147.17;100.00;-15917.19;5071699;27;51218;-49
2023/03/04 05:25:41;;;;;;;;;52.75;44.75;;;;;-147.17;100.00;-15917.19;5069531;27;53389;-47
2023/03/04 05:28:11;;;;;;;;;41.25;38.75;;;;;-147.17;100.00;-15917.19;5070284;27;51342;-48
2023/03/04 05:30:40;;;;;;;;;53.00;44.75;;;;;-147.17;100.00;-15917.19;5077525;27;51158;-49
2023/03/04 05:33:07;;;;;;;;;46.75;41.00;;;;;-147.17;100.00;-15917.19;5071105;27;52008;-49
2023/03/04 05:35:36;;;;;;;;;56.00;43.50;;;;;-147.17;100.00;-15917.19;5069855;27;51424;-49
2023/03/04 05:38:04;;;;;;;;;40.75;38.00;;;;;-147.17;100.00;-15917.19;5071055;27;51323;-49
2023/03/04 05:40:29;;;;;;;;;45.25;36.00;;;;;-147.17;100.00;-15917.19;5070289;27;51347;-51
2023/03/04 05:42:55;;;;;;;;;49.25;39.75;;;;;-147.17;100.00;-15917.19;5070081;27;51847;-51
2023/03/04 05:45:21;;;;;;;;;45.00;39.00;;;;;-147.17;100.00;-15917.19;5069948;27;51170;-50
2023/03/04 05:47:46;;;;;;;;;43.25;41.25;;;;;-147.17;100.00;-15917.19;5071720;27;53395;-49
2023/03/04 05:50:12;;;;;;;;;43.25;39.50;;;;;-147.17;100.00;-15917.19;5069703;27;51080;-51
2023/03/04 05:52:37;;;;;;;;;48.25;36.50;;;;;-147.17;100.00;-15917.19;5070486;27;51161;-48
2023/03/04 05:55:03;;;;;;;;;46.00;40.50;;;;;-147.17;100.00;-15917.19;5068283;27;53209;-50
2023/03/04 05:57:28;;;;;;;;;52.50;41.75;;;;;-147.17;100.00;-15917.19;5069599;27;51194;-49
2023/03/04 05:59:53;;;;;;;;;40.00;37.75;;;;;-147.17;100.00;-15917.19;5071570;27;51130;-48
2023/03/04 06:02:19;;;;;;;;;51.50;43.25;;;;;-147.17;100.00;-15917.19;5069750;27;53231;-47
2023/03/04 06:04:44;;;;;;;;;36.00;31.25;;;;;-147.17;100.00;-15917.19;5070452;27;51116;-50
2023/03/04 06:07:09;;;;;;;;;46.00;41.25;;;;;-147.17;100.00;-15917.19;5070877;27;51379;-51
2023/03/04 06:09:35;;;;;;;;;48.75;42.50;;;;;-147.17;100.00;-15917.19;5069272;27;51107;-50
2023/03/04 06:12:00;;;;;;;;;51.25;43.00;;;;;-147.17;100.00;-15917.19;5069465;27;52765;-51
2023/03/04 06:14:26;;;;;;;;;48.00;40.00;;;;;-147.17;100.00;-15917.19;5069314;27;52917;-54
2023/03/04 06:16:51;;;;;;;;;47.00;41.50;;;;;-147.17;100.00;-15917.19;5069127;27;51907;-48
2023/03/04 06:19:17;;;;;;;;;45.50;40.75;;;;;-147.17;100.00;-15917.19;5068949;27;51342;-50
2023/03/04 06:21:42;;;;;;;;;48.50;40.00;;;;;-147.17;100.00;-15917.19;5070254;27;51488;-49
2023/03/04 06:24:07;;;;;;;;;47.50;41.00;;;;;-147.17;100.00;-15917.19;5069998;27;53052;-50
2023/03/04 06:26:33;;;;;;;;;44.25;40.50;;;;;-147.17;100.00;-15917.19;5067636;27;51320;-51
2023/03/04 06:28:58;;;;;;;;;42.50;36.50;;;;;-147.17;100.00;-15917.19;5069664;27;51372;-51
2023/03/04 06:31:23;;;;;;;;;48.00;42.75;;;;;-147.17;100.00;-15917.19;5080917;27;53510;-49
2023/03/04 06:33:49;;;;;;;;;48.25;41.00;;;;;-147.17;100.00;-15917.19;5070052;27;53500;-50
2023/03/04 06:36:14;;;;;;;;;48.75;38.25;;;;;-147.17;100.00;-15917.19;5068790;27;51210;-48
2023/03/04 06:38:39;;;;;;;;;51.50;43.00;;;;;-147.17;100.00;-15917.19;5069452;27;51224;-50
2023/03/04 06:41:10;;;;;;;;;43.75;38.25;;;;;-147.17;100.00;-15917.19;5069891;27;51198;-48
2023/03/04 06:43:36;;;;;;;;;45.25;36.00;;;;;-147.17;100.00;-15917.19;5066205;27;53297;-50
2023/03/04 06:46:02;;;;;;;;;48.00;38.50;;;;;-147.17;100.00;-15917.19;5068642;27;53583;-50
2023/03/04 06:48:27;;;;;;;;;43.75;37.00;;;;;-147.17;100.00;-15917.19;5068356;27;51476;-51
2023/03/04 06:50:53;;;;;;;;;50.50;42.25;;;;;-147.17;100.00;-15917.19;5068844;27;53241;-51
2023/03/04 06:53:18;;;;;;;;;47.25;42.00;;;;;-147.17;100.00;-15917.19;5068743;27;51151;-48
2023/03/04 06:55:43;;;;;;;;;40.50;33.25;;;;;-147.17;100.00;-15917.19;5069949;27;51403;-51
2023/03/04 06:58:09;;;;;;;;;49.25;42.00;;;;;-147.17;100.00;-15917.19;5069500;27;51336;-49
2023/03/04 07:00:34;;;;;;;;;44.00;40.50;;;;;-147.17;100.00;-15917.19;5065811;27;53567;-49
2023/03/04 07:02:59;;;;;;;;;48.25;40.75;;;;;-147.17;100.00;-15917.19;5068014;27;51161;-48
2023/03/04 07:05:25;;;;;;;;;52.25;43.25;;;;;-147.17;100.00;-15917.19;5069358;27;51143;-50
2023/03/04 07:07:51;;;;;;;;;46.25;39.75;;;;;-147.17;100.00;-15917.19;5068877;27;51187;-49
2023/03/04 07:10:17;;;;;;;;;50.50;42.50;;;;;-147.17;100.00;-15917.19;5068733;27;52577;-49
2023/03/04 07:12:43;;;;;;;;;39.25;31.50;;;;;-147.17;100.00;-15917.19;5068256;27;51188;-50
2023/03/04 07:15:09;;;;;;;;;46.50;38.75;;;;;-147.17;100.00;-15917.19;5067525;27;51214;-49
2023/03/04 07:17:34;;;;;;;;;46.00;40.75;;;;;-147.17;100.00;-15917.19;5069776;27;51041;-51
2023/03/04 07:19:59;;;;;;;;;51.25;42.25;;;;;-147.17;100.00;-15917.19;5068843;27;51215;-50
2023/03/04 07:22:25;;;;;;;;;40.75;37.75;;;;;-147.17;100.00;-15917.19;5068990;27;51302;-51
2023/03/04 07:24:50;;;;;;;;;46.00;41.75;;;;;-147.17;100.00;-15917.19;5067840;27;51391;-50
2023/03/04 07:27:15;;;;;;;;;47.00;36.75;;;;;-147.17;100.00;-15917.19;5068657;27;51107;-50
2023/03/04 07:29:41;;;;;;;;;43.50;39.75;;;;;-147.17;100.00;-15917.19;5068535;27;51763;-50
2023/03/04 07:32:08;;;;;;;;;46.75;40.25;;;;;-147.17;100.00;-15917.19;5069829;27;51162;-49
2023/03/04 07:34:33;;;;;;;;;48.50;39.25;;;;;-147.17;100.00;-15917.19;5068792;27;51279;-48
2023/03/04 07:36:58;;;;;;;;;51.25;44.00;;;;;-147.17;100.00;-15917.19;5069030;27;51351;-48
2023/03/04 07:39:24;;;;;;;;;48.75;43.50;;;;;-147.17;100.00;-15917.19;5068569;27;51951;-49
2023/03/04 07:41:49;;;;;;;;;40.50;38.50;;;;;-147.17;100.00;-15917.19;5071878;27;51364;-50
2023/03/04 07:44:14;;;;;;;;;54.00;41.25;;;;;-147.17;100.00;-15917.19;5071291;27;51328;-49
2023/03/04 07:46:40;;;;;;;;;46.75;40.25;;;;;-147.17;100.00;-15917.19;5072333;27;51493;-49
2023/03/04 07:49:06;;;;;;;;;46.25;42.25;;;;;-147.17;100.00;-15917.19;5070660;27;51828;-49
2023/03/04 07:51:31;;;;;;;;;49.25;42.50;;;;;-147.17;100.00;-15917.19;5071196;27;51301;-49
2023/03/04 07:53:59;;;;;;;;;47.75;41.25;;;;;-147.17;100.00;-15917.19;5071391;27;51126;-51
2023/03/04 07:56:28;;;;;;;;;45.50;40.00;;;;;-147.17;100.00;-15917.19;5072975;27;51428;-48
2023/03/04 07:58:55;;;;;;;;;48.50;41.75;;;;;-147.17;100.00;-15917.19;5072153;27;51134;-48
2023/03/04 08:01:23;;;;;;;;;38.25;34.25;;;;;-147.17;100.00;-15917.19;5073641;27;51127;-47
2023/03/04 08:03:48;;;;;;;;;44.25;38.75;;;;;-147.17;100.00;-15917.19;5071816;27;51335;-50
2023/03/04 08:06:16;;;;;;;;;41.50;37.75;;;;;-147.17;100.00;-15917.19;5072839;27;51139;-48
2023/03/04 08:08:42;;;;;;;;;47.50;39.75;;;;;-147.17;100.00;-15917.19;5070672;27;54296;-50
2023/03/04 08:11:11;;;;;;;;;45.00;39.25;;;;;-147.17;100.00;-15917.19;5070367;27;51298;-48
2023/03/04 08:13:37;;;;;;;;;41.25;39.00;;;;;-147.17;100.00;-15420.25;5071229;27;51303;-49
2023/03/04 08:16:03;;;;;;;;;42.75;39.00;;;;;-147.17;100.00;-15668.00;5072417;27;53398;-51
2023/03/04 08:18:29;;;;;;;;;42.75;39.50;;;;;-147.17;100.00;-15915.72;5073387;27;51255;-48
2023/03/04 08:20:54;;;;;;;;;49.00;40.75;;;;;-147.17;100.00;-15668.00;5070782;27;51137;-48
2023/03/04 08:23:20;;;;;;;;;35.50;30.25;;;;;-147.17;100.00;-15915.72;5068556;27;53595;-48
2023/03/04 08:25:45;;;;;;;;;42.75;38.75;;;;;-147.17;100.00;-15915.72;5070755;27;51390;-51
2023/03/04 08:28:12;;;;;;;;;49.00;41.50;;;;;-147.17;100.00;-15915.72;5071235;27;51824;-49
2023/03/04 08:30:39;;;;;;;;;44.75;38.25;;;;;-147.17;100.00;-15915.72;5069063;27;51245;-50
2023/03/04 08:33:04;;;;;;;;;44.25;37.25;;;;;-147.17;100.00;-15915.72;5071353;27;51183;-50
2023/03/04 08:35:30;;;;;;;;;49.75;39.00;;;;;-147.17;100.00;-15917.19;5070926;27;51229;-51
2023/03/04 08:37:55;;;;;;;;;41.75;39.50;;;;;-147.17;100.00;-15917.19;5071458;27;52853;-49
2023/03/04 08:40:21;;;;;;;;;36.25;29.75;;;;;-147.17;100.00;-15917.19;5071479;27;53735;-50
2023/03/04 08:42:46;;;;;;;;;42.75;38.00;;;;;-147.17;100.00;-15917.19;5071024;27;51708;-49
2023/03/04 08:45:12;;;;;;;;;43.50;39.50;;;;;-147.17;100.00;-15917.19;5070935;27;51076;-49
2023/03/04 08:47:37;;;;;;;;;41.75;36.75;;;;;-147.17;100.00;-15917.19;5071183;27;51774;-51
2023/03/04 08:50:05;;;;;;;;;44.25;37.00;;;;;-147.17;100.00;-15917.19;5072164;27;51342;-50
2023/03/04 08:52:30;;;;;;;;;36.00;33.75;;;;;-147.17;100.00;-15917.19;5071234;27;51522;-49
2023/03/04 08:54:56;;;;;;;;;39.50;36.50;;;;;-147.17;100.00;-15917.19;5071678;27;51388;-49
2023/03/04 08:57:22;;;;;;;;;37.75;33.25;;;;;-147.17;100.00;-15917.19;5070302;27;51297;-49
2023/03/04 08:59:47;;;;;;;;;33.25;32.00;;;;;-147.17;100.00;-15915.72;5071879;27;51167;-49
2023/03/04 09:02:12;;;;;;;;;35.75;32.75;;;;;-147.17;100.00;-15915.72;5071052;27;51265;-51
2023/03/04 09:04:38;;;;;;;;;38.75;35.50;;;;;-147.17;100.00;-15915.72;5070526;27;51424;-50
2023/03/04 09:07:03;;;;;;;;;40.00;32.25;;;;;-147.17;100.00;-15915.72;5070454;27;51748;-51
2023/03/04 09:09:29;;;;;;;;;38.00;34.00;;;;;-147.17;100.00;-15915.72;5069012;27;51202;-51
2023/03/04 09:11:54;;;;;;;;;36.00;34.25;;;;;-147.17;100.00;-15915.72;5071402;27;53584;-50
2023/03/04 09:14:19;;;;;;;;;30.25;28.00;;;;;-147.17;100.00;-15917.19;5069914;27;51136;-49
2023/03/04 09:16:45;;;;;;;;;48.25;39.75;;;;;-147.17;100.00;-15917.19;5069561;27;51618;-49
2023/03/04 09:19:10;;;;;;;;;33.50;30.00;;;;;-147.17;100.00;-15917.19;5068747;27;51119;-49
2023/03/04 09:21:35;;;;;;;;;33.50;29.75;;;;;-147.17;100.00;-15917.19;5071325;27;51231;-48
2023/03/04 09:24:01;;;;;;;;;35.25;31.00;;;;;-147.17;100.00;-15917.19;5070753;27;51414;-48
2023/03/04 09:26:28;;;;;;;;;32.25;29.50;;;;;-147.17;100.00;-15917.19;5068691;27;51892;-50
2023/03/04 09:28:56;;;;;;;;;33.00;29.25;;;;;-147.17;100.00;-15917.19;5069998;27;51280;-49
2023/03/04 09:31:23;;;;;;;;;35.50;31.00;;;;;-147.17;100.00;-15917.19;5071648;27;51113;-51
2023/03/04 09:33:49;;;;;;;;;25.25;23.50;;;;;-147.17;100.00;-15917.19;5070095;27;52923;-49
2023/03/04 09:36:14;;;;;;;;;24.25;22.50;;;;;-147.17;100.00;-15917.19;5069224;27;52630;-51
2023/03/04 09:38:41;;;;;;;;;29.25;28.25;;;;;-147.17;100.00;-15917.19;5070837;27;51182;-48
2023/03/04 09:41:09;;;;;;;;;35.00;30.25;;;;;-147.17;100.00;-15917.19;5069685;27;51034;-50
2023/03/04 09:43:38;;;;;;;;;31.25;29.75;;;;;-147.17;100.00;-15917.19;5069054;27;51489;-48
2023/03/04 09:46:14;;;;;;;;;32.75;30.50;;;;;-147.17;100.00;-15917.19;5068674;27;51323;-48
2023/03/04 09:48:58;;;;;;;;;28.25;25.00;;;;;-147.17;100.00;-15917.19;5069854;27;51298;-48
2023/03/04 09:51:47;;;;;;;;;38.25;33.00;;;;;-147.17;100.00;-15917.19;5069990;27;51459;-50
2023/03/04 09:54:35;;;;;;;;;31.75;29.00;;;;;-147.17;100.00;-15917.19;5070919;27;51381;-48
2023/03/04 09:57:34;;;;;;;;;35.75;28.50;;;;;-147.17;100.00;-15917.19;5070051;27;53273;-50
2023/03/04 10:00:05;;;;;;;;;39.00;31.50;;;;;-147.17;100.00;-15917.19;5066965;27;51280;-49
2023/03/04 10:02:56;;;;;;;;;33.50;28.75;;;;;-147.17;100.00;-15917.19;5069028;27;51241;-50
2023/03/04 10:05:25;;;;;;;;;37.00;30.75;;;;;-147.17;100.00;-15917.19;5070347;27;53226;-49
2023/03/04 10:08:15;;;;;;;;;33.00;28.75;;;;;-147.17;100.00;-15917.19;5068621;27;51254;-48
2023/03/04 10:10:42;;;;;;;;;35.75;32.25;;;;;-147.17;100.00;-15917.19;5069720;27;51203;-50
2023/03/04 10:13:17;;;;;;;;;29.25;27.75;;;;;-147.17;100.00;-15917.19;5069272;27;52679;-50
2023/03/04 10:15:47;;;;;;;;;34.25;29.00;;;;;-147.17;100.00;-15917.19;5069684;27;53439;-50
2023/03/04 10:18:21;;;;;;;;;37.75;32.50;;;;;-147.17;100.00;-15917.19;5069425;27;51224;-50
2023/03/04 10:20:59;;;;;;;;;32.00;28.50;;;;;-147.17;100.00;-15917.19;5069455;27;51164;-49
2023/03/04 10:23:25;;;;;;;;;32.50;27.25;;;;;-147.17;100.00;-15917.19;5071431;27;51291;-49
2023/03/04 10:25:53;;;;;;;;;27.50;22.25;;;;;-147.17;100.00;-15917.19;5069766;27;53599;-50
2023/03/04 10:28:27;;;;;;;;;32.00;29.75;;;;;-147.17;100.00;-15917.19;5065885;27;51765;-50
2023/03/04 10:31:08;;;;;;;;;40.50;31.25;;;;;-147.17;100.00;-15917.19;5069751;27;51142;-50
2023/03/04 10:33:36;;;;;;;;;37.25;33.00;;;;;-147.17;100.00;-15917.19;5069355;27;51383;-49
2023/03/04 10:36:03;;;;;;;;;41.25;34.75;;;;;-147.17;100.00;-15917.19;5068942;27;51112;-50
2023/03/04 10:38:35;;;;;;;;;37.25;35.50;;;;;-147.17;100.00;-15917.19;5069170;27;53349;-50
2023/03/04 10:41:01;;;;;;;;;38.50;35.75;;;;;-147.17;100.00;-15917.19;5068435;27;51209;-49
2023/03/04 10:43:27;;;;;;;;;45.25;37.00;;;;;-147.17;100.00;-15917.19;5068215;27;51365;-49
2023/03/04 10:46:00;;;;;;;;;43.00;38.00;;;;;-147.17;100.00;-15917.19;5069770;27;51046;-49